createdAt,value
2022-08-20T00:00:29.905Z,23.90
2022-08-20T00:03:01.376Z,23.90
2022-08-20T00:05:32.872Z,23.90
2022-08-20T00:08:00.469Z,23.80
2022-08-20T00:10:30.361Z,23.80
2022-08-20T00:13:00.691Z,23.80
2022-08-20T00:15:32.317Z,23.70
2022-08-20T00:18:03.127Z,23.70
2022-08-20T00:20:40.244Z,23.70
2022-08-20T00:23:10.475Z,23.80
2022-08-20T00:25:40.682Z,23.90
2022-08-20T00:28:07.732Z,23.90
2022-08-20T00:30:36.615Z,23.90
2022-08-20T00:33:07.672Z,23.90
2022-08-20T00:35:40.122Z,23.90
2022-08-20T00:38:07.377Z,23.90
2022-08-20T00:40:43.957Z,23.90
2022-08-20T00:43:38.066Z,23.80
2022-08-20T00:46:10.214Z,23.80
2022-08-20T00:48:42.208Z,23.70
2022-08-20T00:51:13.166Z,23.70
2022-08-20T00:53:40.516Z,23.80
2022-08-20T00:56:13.668Z,23.70
2022-08-20T00:58:45.174Z,23.70
2022-08-20T01:01:15.725Z,23.60
2022-08-20T01:03:42.847Z,23.60
2022-08-20T01:06:11.894Z,23.60
2022-08-20T01:08:41.016Z,23.50
2022-08-20T01:11:21.084Z,23.50
2022-08-20T01:13:51.023Z,23.50
2022-08-20T01:16:24.499Z,23.40
2022-08-20T01:18:52.980Z,23.30
2022-08-20T01:21:23.926Z,23.30
2022-08-20T01:24:01.737Z,23.30
2022-08-20T01:26:36.551Z,23.30
2022-08-20T01:29:11.171Z,23.30
2022-08-20T01:31:40.478Z,23.30
2022-08-20T01:34:12.858Z,23.20
2022-08-20T01:36:48.404Z,23.20
2022-08-20T01:39:23.061Z,23.20
2022-08-20T01:42:07.150Z,23.20
2022-08-20T01:44:35.959Z,23.20
2022-08-20T01:47:15.968Z,23.10
2022-08-20T01:49:46.882Z,23.10
2022-08-20T01:52:22.216Z,23.10
2022-08-20T01:54:49.335Z,23.10
2022-08-20T01:57:21.288Z,23.10
2022-08-20T01:59:50.265Z,23.10
2022-08-20T02:02:17.389Z,23.10
2022-08-20T02:04:44.535Z,23.00
2022-08-20T02:07:16.121Z,23.00
2022-08-20T02:09:44.389Z,22.90
2022-08-20T02:12:13.914Z,22.90
2022-08-20T02:14:45.085Z,22.90
2022-08-20T02:17:14.118Z,22.90
2022-08-20T02:19:49.256Z,22.80
2022-08-20T02:22:21.869Z,22.90
2022-08-20T02:24:49.297Z,22.90
2022-08-20T02:27:17.401Z,22.90
2022-08-20T02:29:46.712Z,22.80
2022-08-20T02:32:24.847Z,22.90
2022-08-20T02:35:03.155Z,22.90
2022-08-20T02:37:30.928Z,22.80
2022-08-20T02:39:58.094Z,22.90
2022-08-20T02:42:31.127Z,22.90
2022-08-20T02:44:59.807Z,22.80
2022-08-20T02:47:27.704Z,22.90
2022-08-20T02:49:55.454Z,22.90
2022-08-20T02:52:22.770Z,22.90
2022-08-20T02:54:50.315Z,22.90
2022-08-20T02:57:22.759Z,22.90
2022-08-20T02:59:52.273Z,22.90
2022-08-20T03:02:21.517Z,22.90
2022-08-20T03:04:48.682Z,22.90
2022-08-20T03:07:15.667Z,22.90
2022-08-20T03:09:42.781Z,22.90
2022-08-20T03:12:10.650Z,22.90
2022-08-20T03:14:37.968Z,22.90
2022-08-20T03:17:05.227Z,22.80
2022-08-20T03:19:33.711Z,22.80
2022-08-20T03:22:01.181Z,22.80
2022-08-20T03:24:31.310Z,22.80
2022-08-20T03:26:59.006Z,22.80
2022-08-20T03:29:26.004Z,22.80
2022-08-20T03:31:53.090Z,22.80
2022-08-20T03:34:20.164Z,22.70
2022-08-20T03:36:48.552Z,22.70
2022-08-20T03:39:16.228Z,22.80
2022-08-20T03:41:43.183Z,22.80
2022-08-20T03:44:13.404Z,22.80
2022-08-20T03:46:40.487Z,22.80
2022-08-20T03:49:07.979Z,22.70
2022-08-20T03:51:57.369Z,22.70
2022-08-20T03:54:23.505Z,22.70
2022-08-20T03:56:50.688Z,22.80
2022-08-20T03:59:17.676Z,22.80
2022-08-20T04:01:54.622Z,22.80
2022-08-20T04:04:22.128Z,22.80
2022-08-20T04:06:51.566Z,22.80
2022-08-20T04:09:18.768Z,22.80
2022-08-20T04:11:47.243Z,22.80
2022-08-20T04:14:18.481Z,22.80
2022-08-20T04:16:46.395Z,22.70
2022-08-20T04:19:18.879Z,22.70
2022-08-20T04:21:48.409Z,22.70
2022-08-20T04:24:22.513Z,22.70
2022-08-20T04:27:05.051Z,22.70
2022-08-20T04:29:35.278Z,22.60
2022-08-20T04:32:05.900Z,22.60
2022-08-20T04:34:34.410Z,22.60
2022-08-20T04:37:16.556Z,22.60
2022-08-20T04:39:44.793Z,22.60
2022-08-20T04:42:13.278Z,22.60
2022-08-20T04:44:40.323Z,22.50
2022-08-20T04:47:07.971Z,22.50
2022-08-20T04:49:37.648Z,22.40
2022-08-20T04:52:04.789Z,22.30
2022-08-20T04:54:32.634Z,22.20
2022-08-20T04:57:01.444Z,22.20
2022-08-20T04:59:29.863Z,22.20
2022-08-20T05:01:57.025Z,22.10
2022-08-20T05:04:26.446Z,22.10
2022-08-20T05:06:53.578Z,22.20
2022-08-20T05:09:21.241Z,22.30
2022-08-20T05:11:48.749Z,22.30
2022-08-20T05:14:15.726Z,22.30
2022-08-20T05:16:44.234Z,22.20
2022-08-20T05:19:14.014Z,22.30
2022-08-20T05:21:41.751Z,22.30
2022-08-20T05:24:10.365Z,22.30
2022-08-20T05:26:37.535Z,22.40
2022-08-20T05:29:05.630Z,22.30
2022-08-20T05:31:35.842Z,22.10
2022-08-20T05:34:11.519Z,22.10
2022-08-20T05:36:40.705Z,22.10
2022-08-20T05:39:09.036Z,22.10
2022-08-20T05:41:36.412Z,22.00
2022-08-20T05:44:04.285Z,22.10
2022-08-20T05:46:32.283Z,22.10
2022-08-20T05:49:03.442Z,22.00
2022-08-20T05:51:30.692Z,22.00
2022-08-20T05:53:59.712Z,22.00
2022-08-20T05:56:30.599Z,21.90
2022-08-20T05:59:00.699Z,21.70
2022-08-20T06:01:28.010Z,21.80
2022-08-20T06:04:14.754Z,21.90
2022-08-20T06:06:44.671Z,22.00
2022-08-20T06:09:31.933Z,22.00
2022-08-20T06:12:01.724Z,22.10
2022-08-20T06:14:28.929Z,22.20
2022-08-20T06:17:07.650Z,22.10
2022-08-20T06:19:36.061Z,22.20
2022-08-20T06:22:18.086Z,22.10
2022-08-20T06:24:50.092Z,22.20
2022-08-20T06:27:17.735Z,22.30
2022-08-20T06:29:45.007Z,22.40
2022-08-20T06:32:12.108Z,22.50
2022-08-20T06:34:49.941Z,22.50
2022-08-20T06:37:23.516Z,22.60
2022-08-20T06:40:02.887Z,22.70
2022-08-20T06:42:30.033Z,22.70
2022-08-20T06:44:59.499Z,22.70
2022-08-20T06:47:26.512Z,22.70
2022-08-20T06:49:53.550Z,22.70
2022-08-20T06:52:42.819Z,22.70
2022-08-20T06:55:11.416Z,22.70
2022-08-20T06:57:39.262Z,22.70
2022-08-20T07:00:11.067Z,22.80
2022-08-20T07:02:38.287Z,22.80
2022-08-20T07:05:07.009Z,22.80
2022-08-20T07:07:35.431Z,22.90
2022-08-20T07:10:05.307Z,22.80
2022-08-20T07:12:32.560Z,22.90
2022-08-20T07:14:59.518Z,22.90
2022-08-20T07:17:26.553Z,22.90
2022-08-20T07:19:53.694Z,22.90
2022-08-20T07:22:20.685Z,23.00
2022-08-20T07:24:49.366Z,23.00
2022-08-20T07:27:22.471Z,23.00
2022-08-20T07:30:12.889Z,23.10
2022-08-20T07:32:45.283Z,23.20
2022-08-20T07:35:23.208Z,23.30
2022-08-20T07:37:51.943Z,23.40
2022-08-20T07:40:26.107Z,23.50
2022-08-20T07:42:54.189Z,23.60
2022-08-20T07:45:21.760Z,23.60
2022-08-20T07:47:53.658Z,23.60
2022-08-20T07:50:23.794Z,23.60
2022-08-20T07:52:54.136Z,23.60
2022-08-20T07:55:22.711Z,23.50
2022-08-20T07:57:50.605Z,23.60
2022-08-20T08:00:21.056Z,23.70
2022-08-20T08:02:48.294Z,23.80
2022-08-20T08:05:16.116Z,23.80
2022-08-20T08:07:43.446Z,23.80
2022-08-20T08:10:18.454Z,23.80
2022-08-20T08:12:50.342Z,23.90
2022-08-20T08:15:28.644Z,23.80
2022-08-20T08:17:59.180Z,23.80
2022-08-20T08:20:26.228Z,23.80
2022-08-20T08:22:53.795Z,23.80
2022-08-20T08:25:21.035Z,23.80
2022-08-20T08:27:54.675Z,23.90
2022-08-20T08:30:21.721Z,24.00
2022-08-20T08:33:10.365Z,24.10
2022-08-20T08:35:38.179Z,24.20
2022-08-20T08:38:15.326Z,24.20
2022-08-20T08:41:00.042Z,24.20
2022-08-20T08:43:31.866Z,24.30
2022-08-20T08:46:05.187Z,24.30
2022-08-20T08:48:37.314Z,24.20
2022-08-20T08:51:12.370Z,24.20
2022-08-20T08:53:46.260Z,24.30
2022-08-20T08:56:15.013Z,24.30
2022-08-20T08:58:46.465Z,24.30
2022-08-20T09:01:53.729Z,24.30
2022-08-20T09:04:05.782Z,24.30
2022-08-20T09:06:33.571Z,24.30
2022-08-20T09:09:12.211Z,24.40
2022-08-20T09:11:56.182Z,24.40
2022-08-20T09:14:32.345Z,24.40
2022-08-20T09:17:01.667Z,24.40
2022-08-20T09:19:35.016Z,24.40
2022-08-20T09:22:10.543Z,24.40
2022-08-20T09:24:38.194Z,24.40
2022-08-20T09:27:06.131Z,24.40
2022-08-20T09:29:35.049Z,24.40
2022-08-20T09:32:07.129Z,24.50
2022-08-20T09:34:37.067Z,24.60
2022-08-20T09:37:04.639Z,24.70
2022-08-20T09:39:32.080Z,24.70
2022-08-20T09:42:10.713Z,24.90
2022-08-20T09:44:40.523Z,25.00
2022-08-20T09:47:07.930Z,25.10
2022-08-20T09:49:38.428Z,25.20
2022-08-20T09:52:09.112Z,25.20
2022-08-20T09:54:37.784Z,25.20
2022-08-20T09:57:09.873Z,25.20
2022-08-20T09:59:41.490Z,25.10
2022-08-20T10:02:08.676Z,25.10
2022-08-20T10:04:35.821Z,24.90
2022-08-20T10:07:08.570Z,24.90
2022-08-20T10:09:36.654Z,24.90
2022-08-20T10:12:04.672Z,24.90
2022-08-20T10:14:31.797Z,25.00
2022-08-20T10:17:02.273Z,25.10
2022-08-20T10:19:31.314Z,25.20
2022-08-20T10:21:59.817Z,25.30
2022-08-20T10:24:30.174Z,25.40
2022-08-20T10:26:58.924Z,25.60
2022-08-20T10:29:28.062Z,25.70
2022-08-20T10:32:15.171Z,25.90
2022-08-20T10:34:52.077Z,26.10
2022-08-20T10:37:27.042Z,26.10
2022-08-20T10:39:59.338Z,26.20
2022-08-20T10:42:29.623Z,26.20
2022-08-20T10:44:59.999Z,26.20
2022-08-20T10:47:31.087Z,26.20
2022-08-20T10:50:05.766Z,26.30
2022-08-20T10:52:32.824Z,26.30
2022-08-20T10:55:04.751Z,26.30
2022-08-20T10:57:33.686Z,26.30
2022-08-20T11:00:01.507Z,26.30
2022-08-20T11:02:31.367Z,26.40
2022-08-20T11:05:08.588Z,26.40
2022-08-20T11:07:52.761Z,26.40
2022-08-20T11:10:27.682Z,26.20
2022-08-20T11:12:54.872Z,26.10
2022-08-20T11:15:25.237Z,26.10
2022-08-20T11:17:53.823Z,26.10
2022-08-20T11:20:27.857Z,26.00
2022-08-20T11:23:02.209Z,26.00
2022-08-20T11:25:29.750Z,26.00
2022-08-20T11:28:05.894Z,26.00
2022-08-20T11:30:36.108Z,25.90
2022-08-20T11:33:06.009Z,26.00
2022-08-20T11:35:43.450Z,26.10
2022-08-20T11:38:18.426Z,26.20
2022-08-20T11:40:48.860Z,26.20
2022-08-20T11:43:17.594Z,26.20
2022-08-20T11:45:55.516Z,26.10
2022-08-20T11:48:24.098Z,26.10
2022-08-20T11:50:51.373Z,26.20
2022-08-20T11:53:18.523Z,26.30
2022-08-20T11:55:47.750Z,26.40
2022-08-20T11:58:14.884Z,26.30
2022-08-20T12:00:42.089Z,26.40
2022-08-20T12:03:09.991Z,26.40
2022-08-20T12:05:43.230Z,26.40
2022-08-20T12:08:26.919Z,26.50
2022-08-20T12:11:05.907Z,26.60
2022-08-20T12:13:47.816Z,26.70
2022-08-20T12:16:21.916Z,26.70
2022-08-20T12:18:49.286Z,26.80
2022-08-20T12:21:20.950Z,26.90
2022-08-20T12:23:54.371Z,26.90
2022-08-20T12:26:21.527Z,26.80
2022-08-20T12:28:48.513Z,26.60
2022-08-20T12:31:21.567Z,26.50
2022-08-20T12:33:48.599Z,26.60
2022-08-20T12:36:15.653Z,26.60
2022-08-20T12:38:44.146Z,26.60
2022-08-20T12:41:11.393Z,26.60
2022-08-20T12:43:39.315Z,26.60
2022-08-20T12:46:06.664Z,26.70
2022-08-20T12:48:33.734Z,26.70
2022-08-20T12:51:03.869Z,26.50
2022-08-20T12:53:33.719Z,26.50
2022-08-20T12:56:05.343Z,26.60
2022-08-20T12:58:32.528Z,26.70
2022-08-20T13:00:59.590Z,26.80
2022-08-20T13:03:26.731Z,26.80
2022-08-20T13:06:01.569Z,26.80
2022-08-20T13:08:29.807Z,26.90
2022-08-20T13:10:56.801Z,26.90
2022-08-20T13:13:25.313Z,26.90
2022-08-20T13:15:52.311Z,27.00
2022-08-20T13:18:21.915Z,27.10
2022-08-20T13:20:49.670Z,27.10
2022-08-20T13:23:16.888Z,27.10
2022-08-20T13:25:44.025Z,27.10
2022-08-20T13:28:11.538Z,27.20
2022-08-20T13:30:41.273Z,27.10
2022-08-20T13:33:08.515Z,27.10
2022-08-20T13:35:39.525Z,27.10
2022-08-20T13:38:06.822Z,27.10
2022-08-20T13:40:33.935Z,27.20
2022-08-20T13:43:06.004Z,27.20
2022-08-20T13:45:35.673Z,27.20
2022-08-20T13:48:10.034Z,27.20
2022-08-20T13:50:43.986Z,27.30
2022-08-20T13:53:15.801Z,27.30
2022-08-20T13:55:45.634Z,27.40
2022-08-20T13:58:12.860Z,27.50
2022-08-20T14:00:40.171Z,27.40
2022-08-20T14:03:08.601Z,27.50
2022-08-20T14:05:36.719Z,27.50
2022-08-20T14:08:10.768Z,27.50
2022-08-20T14:10:39.248Z,27.50
2022-08-20T14:13:15.136Z,27.50
2022-08-20T14:15:43.893Z,27.50
2022-08-20T14:18:15.461Z,27.50
2022-08-20T14:20:45.495Z,27.40
2022-08-20T14:23:13.169Z,27.40
2022-08-20T14:25:40.440Z,27.30
2022-08-20T14:28:14.018Z,27.30
2022-08-20T14:30:41.702Z,27.30
2022-08-20T14:33:09.219Z,27.20
2022-08-20T14:35:38.222Z,27.30
2022-08-20T14:38:05.678Z,27.30
2022-08-20T14:40:34.159Z,27.30
2022-08-20T14:43:02.177Z,27.20
2022-08-20T14:45:29.362Z,27.20
2022-08-20T14:47:58.199Z,27.20
2022-08-20T14:50:31.359Z,27.20
2022-08-20T14:53:01.029Z,27.20
2022-08-20T14:55:31.395Z,27.20
2022-08-20T14:57:58.675Z,27.20
2022-08-20T15:00:31.078Z,27.20
2022-08-20T15:02:58.446Z,27.20
2022-08-20T15:05:26.320Z,27.20
2022-08-20T15:07:55.706Z,27.20
2022-08-20T15:10:28.035Z,27.10
2022-08-20T15:12:55.955Z,27.10
2022-08-20T15:15:24.774Z,27.10
2022-08-20T15:17:55.180Z,27.10
2022-08-20T15:20:26.839Z,27.10
2022-08-20T15:22:54.481Z,27.10
2022-08-20T15:25:26.367Z,27.00
2022-08-20T15:27:58.329Z,27.00
2022-08-20T15:30:31.056Z,27.00
2022-08-20T15:32:58.427Z,27.00
2022-08-20T15:35:28.274Z,27.00
2022-08-20T15:37:58.410Z,27.00
2022-08-20T15:40:30.620Z,26.90
2022-08-20T15:42:58.895Z,26.90
2022-08-20T15:45:26.871Z,26.90
2022-08-20T15:48:00.889Z,26.90
2022-08-20T15:50:44.800Z,26.90
2022-08-20T15:53:22.094Z,26.90
2022-08-20T15:56:00.320Z,26.90
2022-08-20T15:58:36.482Z,26.90
2022-08-20T16:01:24.702Z,26.80
2022-08-20T16:04:10.554Z,26.80
2022-08-20T16:06:38.875Z,26.80
2022-08-20T16:09:37.934Z,26.70
2022-08-20T16:12:11.218Z,26.70
2022-08-20T16:14:42.051Z,26.70
2022-08-20T16:17:16.875Z,26.70
2022-08-20T16:19:54.224Z,26.60
2022-08-20T16:22:22.235Z,26.60
2022-08-20T16:24:50.227Z,26.60
2022-08-20T16:27:28.463Z,26.50
2022-08-20T16:30:01.109Z,26.50
2022-08-20T16:32:39.153Z,26.50
2022-08-20T16:35:27.663Z,26.40
2022-08-20T16:38:08.104Z,26.40
2022-08-20T16:40:49.408Z,26.40
2022-08-20T16:43:29.309Z,26.40
2022-08-20T16:46:02.952Z,26.40
2022-08-20T16:48:36.133Z,26.30
2022-08-20T16:51:07.274Z,26.30
2022-08-20T16:53:36.614Z,26.30
2022-08-20T16:56:05.348Z,26.30
2022-08-20T16:58:34.116Z,26.30
2022-08-20T17:01:13.881Z,26.20
2022-08-20T17:03:50.164Z,26.20
2022-08-20T17:06:26.128Z,26.10
2022-08-20T17:08:53.781Z,26.10
2022-08-20T17:11:30.973Z,26.00
2022-08-20T17:14:14.519Z,26.10
2022-08-20T17:16:47.116Z,26.00
2022-08-20T17:19:20.450Z,26.10
2022-08-20T17:21:50.801Z,26.00
2022-08-20T17:24:31.286Z,26.00
2022-08-20T17:27:02.182Z,26.00
2022-08-20T17:29:33.976Z,26.00
2022-08-20T17:32:09.902Z,25.90
2022-08-20T17:34:47.254Z,25.90
2022-08-20T17:37:33.319Z,25.80
2022-08-20T17:40:17.411Z,25.80
2022-08-20T17:42:51.647Z,25.70
2022-08-20T17:45:25.058Z,25.70
2022-08-20T17:47:55.280Z,25.60
2022-08-20T17:50:30.935Z,25.60
2022-08-20T17:53:21.190Z,25.50
2022-08-20T17:56:00.911Z,25.50
2022-08-20T17:58:55.173Z,25.40
2022-08-20T18:01:25.950Z,25.40
2022-08-20T18:03:53.962Z,25.40
2022-08-20T18:06:30.848Z,25.40
2022-08-20T18:09:09.670Z,25.30
2022-08-20T18:11:44.079Z,25.30
2022-08-20T18:14:39.742Z,25.30
2022-08-20T18:17:16.997Z,25.20
2022-08-20T18:20:14.500Z,25.20
2022-08-20T18:22:54.661Z,25.20
2022-08-20T18:25:33.154Z,25.10
2022-08-20T18:28:07.439Z,25.10
2022-08-20T18:30:35.138Z,25.00
2022-08-20T18:33:10.373Z,25.00
2022-08-20T18:35:46.193Z,24.90
2022-08-20T18:38:29.068Z,24.90
2022-08-20T18:41:11.360Z,24.80
2022-08-20T18:43:39.274Z,24.70
2022-08-20T18:46:22.705Z,24.70
2022-08-20T18:48:58.418Z,24.70
2022-08-20T18:51:40.073Z,24.60
2022-08-20T18:54:23.864Z,24.60
2022-08-20T18:57:06.623Z,24.60
2022-08-20T18:59:50.689Z,24.50
2022-08-20T19:02:25.261Z,24.50
2022-08-20T19:05:02.753Z,24.50
2022-08-20T19:07:48.659Z,24.40
2022-08-20T19:10:48.752Z,24.40
2022-08-20T19:14:04.235Z,24.20
2022-08-20T19:16:39.966Z,24.30
2022-08-20T19:19:19.878Z,24.30
2022-08-20T19:21:56.329Z,24.30
2022-08-20T19:24:27.598Z,24.20
2022-08-20T19:27:00.380Z,24.20
2022-08-20T19:29:32.226Z,24.10
2022-08-20T19:32:00.714Z,24.00
2022-08-20T19:34:32.145Z,23.90
2022-08-20T19:37:28.176Z,24.00
2022-08-20T19:39:55.004Z,24.00
2022-08-20T19:42:28.275Z,23.90
2022-08-20T19:44:59.611Z,23.80
2022-08-20T19:47:33.006Z,23.70
2022-08-20T19:50:18.036Z,23.60
2022-08-20T19:53:07.915Z,23.60
2022-08-20T19:55:38.697Z,23.50
2022-08-20T19:58:12.231Z,23.50
2022-08-20T20:00:53.970Z,23.50
2022-08-20T20:03:26.588Z,23.40
2022-08-20T20:05:57.395Z,23.30
2022-08-20T20:08:39.281Z,23.20
2022-08-20T20:11:06.768Z,23.20
2022-08-20T20:13:37.633Z,23.20
2022-08-20T20:16:11.410Z,23.20
2022-08-20T20:18:42.362Z,23.10
2022-08-20T20:21:14.865Z,23.20
2022-08-20T20:23:53.460Z,23.10
2022-08-20T20:26:20.883Z,23.20
2022-08-20T20:28:51.549Z,23.10
2022-08-20T20:31:25.901Z,23.20
2022-08-20T20:33:56.724Z,23.10
2022-08-20T20:36:38.232Z,23.10
2022-08-20T20:39:14.199Z,23.10
2022-08-20T20:41:53.761Z,23.10
2022-08-20T20:44:24.543Z,23.00
2022-08-20T20:46:56.546Z,22.80
2022-08-20T20:49:26.226Z,22.80
2022-08-20T20:51:58.704Z,22.80
2022-08-20T20:54:40.450Z,22.80
2022-08-20T20:57:25.571Z,22.80
2022-08-20T21:00:11.596Z,22.90
2022-08-20T21:02:38.702Z,22.70
2022-08-20T21:05:06.956Z,22.70
2022-08-20T21:07:34.027Z,22.60
2022-08-20T21:10:03.535Z,22.60
2022-08-20T21:12:30.709Z,22.60
2022-08-20T21:14:57.717Z,22.50
2022-08-20T21:17:25.261Z,22.40
2022-08-20T21:19:53.041Z,22.40
2022-08-20T21:22:23.690Z,22.40
2022-08-20T21:24:51.419Z,22.50
2022-08-20T21:27:23.503Z,22.40
2022-08-20T21:29:52.812Z,22.50
2022-08-20T21:32:21.265Z,22.50
2022-08-20T21:34:49.666Z,22.40
2022-08-20T21:37:17.900Z,22.50
2022-08-20T21:39:45.139Z,22.40
2022-08-20T21:42:29.052Z,22.30
2022-08-20T21:44:58.990Z,22.30
2022-08-20T21:47:28.612Z,22.40
2022-08-20T21:49:55.906Z,22.40
2022-08-20T21:52:23.176Z,22.30
2022-08-20T21:54:50.309Z,22.20
2022-08-20T21:57:24.093Z,22.10
2022-08-20T21:59:52.235Z,22.20
2022-08-20T22:02:21.708Z,22.30
2022-08-20T22:04:53.992Z,22.00
2022-08-20T22:07:22.075Z,22.00
2022-08-20T22:09:49.206Z,22.10
2022-08-20T22:12:20.153Z,22.10
2022-08-20T22:14:47.318Z,22.10
2022-08-20T22:17:15.314Z,22.20
2022-08-20T22:19:43.862Z,22.20
2022-08-20T22:22:13.284Z,22.20
2022-08-20T22:24:40.403Z,22.20
2022-08-20T22:27:07.964Z,22.20
2022-08-20T22:29:35.221Z,22.10
2022-08-20T22:32:03.306Z,22.10
2022-08-20T22:34:34.277Z,22.00
2022-08-20T22:37:05.895Z,21.90
2022-08-20T22:39:32.955Z,21.70
2022-08-20T22:42:00.198Z,21.70
2022-08-20T22:44:27.408Z,21.80
2022-08-20T22:46:58.799Z,21.60
2022-08-20T22:49:32.687Z,21.70
2022-08-20T22:52:00.358Z,21.60
2022-08-20T22:54:29.101Z,21.50
2022-08-20T22:56:59.276Z,21.40
2022-08-20T22:59:29.428Z,21.50
2022-08-20T23:01:58.236Z,21.70
2022-08-20T23:04:29.279Z,21.50
2022-08-20T23:06:57.568Z,21.40
2022-08-20T23:09:25.468Z,21.40
2022-08-20T23:11:56.618Z,21.40
2022-08-20T23:14:23.666Z,21.20
2022-08-20T23:17:00.216Z,21.30
2022-08-20T23:19:29.905Z,21.10
2022-08-20T23:21:59.494Z,21.10
2022-08-20T23:24:26.628Z,21.00
2022-08-20T23:26:55.175Z,21.00
2022-08-20T23:29:25.524Z,21.10
2022-08-20T23:31:57.395Z,21.00
2022-08-20T23:34:27.804Z,20.90
2022-08-20T23:37:00.354Z,20.80
2022-08-20T23:39:28.467Z,20.70
2022-08-20T23:41:59.118Z,20.90
2022-08-20T23:44:29.898Z,21.00
2022-08-20T23:47:00.224Z,21.00
2022-08-20T23:49:28.870Z,21.00
2022-08-20T23:51:57.654Z,20.90
2022-08-20T23:54:24.686Z,20.90
2022-08-20T23:56:51.901Z,20.80
2022-08-20T23:59:26.044Z,20.70
